TimeEDT,TemperatureF,Dew PointF,Humidity,Sea Level PressureIn,VisibilityMPH,Wind Direction,Wind SpeedMPH,Gust SpeedMPH,PrecipitationIn,Events,Conditions,WindDirDegrees,DateUTC
12:53 AM,48.9,37.9,66,29.81,10.0,West,12.7,24.2,N/A,,Mostly Cloudy,260,2013-10-20 04:53:00
1:53 AM,50.0,37.9,63,29.79,10.0,WSW,12.7,19.6,0.00,Rain,Light Rain,250,2013-10-20 05:53:00
2:53 AM,48.9,41.0,74,29.74,10.0,West,11.5,20.7,0.05,,Mostly Cloudy,260,2013-10-20 06:53:00
3:53 AM,48.0,37.0,66,29.74,10.0,West,9.2,19.6,N/A,,Mostly Cloudy,270,2013-10-20 07:53:00
4:53 AM,46.9,35.1,63,29.81,10.0,West,12.7,-,N/A,,Partly Cloudy,270,2013-10-20 08:53:00
5:53 AM,46.9,35.1,63,29.82,10.0,West,10.4,-,N/A,,Mostly Cloudy,270,2013-10-20 09:53:00
6:53 AM,46.0,36.0,68,29.83,10.0,West,6.9,-,N/A,,Mostly Cloudy,270,2013-10-20 10:53:00
7:53 AM,46.0,36.0,68,29.83,10.0,Variable,3.5,-,N/A,,Partly Cloudy,0,2013-10-20 11:53:00
8:53 AM,41.0,37.0,86,29.86,10.0,Calm,Calm,-,N/A,,Mostly Cloudy,0,2013-10-20 12:53:00
9:53 AM,48.0,41.0,77,29.88,10.0,Calm,Calm,-,N/A,,Mostly Cloudy,0,2013-10-20 13:53:00
10:53 AM,48.9,41.0,74,29.89,10.0,South,3.5,-,N/A,,Mostly Cloudy,170,2013-10-20 14:53:00
11:53 AM,52.0,37.9,59,29.89,10.0,SW,9.2,-,N/A,,Mostly Cloudy,230,2013-10-20 15:53:00
12:53 PM,54.0,39.0,57,29.88,10.0,WSW,12.7,18.4,N/A,,Mostly Cloudy,250,2013-10-20 16:53:00
1:53 PM,53.1,37.9,57,29.87,10.0,SW,9.2,-,N/A,,Overcast,230,2013-10-20 17:53:00
2:53 PM,54.0,37.9,55,29.84,10.0,SW,8.1,-,N/A,,Mostly Cloudy,220,2013-10-20 18:53:00
3:53 PM,54.0,41.0,62,29.78,10.0,South,8.1,-,0.00,Rain,Light Rain,180,2013-10-20 19:53:00
4:53 PM,54.0,41.0,62,29.75,10.0,ESE,4.6,-,0.00,,Overcast,120,2013-10-20 20:53:00
5:53 PM,54.0,42.1,64,29.75,10.0,SE,6.9,-,N/A,,Overcast,140,2013-10-20 21:53:00
6:53 PM,54.0,43.0,66,29.77,10.0,SE,9.2,-,N/A,,Mostly Cloudy,130,2013-10-20 22:53:00
7:53 PM,54.0,43.0,66,29.76,10.0,SE,9.2,-,N/A,,Overcast,140,2013-10-20 23:53:00
8:53 PM,54.0,44.1,69,29.74,10.0,SSE,11.5,-,0.00,,Overcast,150,2013-10-21 00:53:00
9:53 PM,55.9,45.0,67,29.74,10.0,SSW,17.3,21.9,0.01,Rain,Light Rain,200,2013-10-21 01:53:00
10:53 PM,57.9,50.0,75,29.76,10.0,SW,15.0,-,0.03,Rain,Light Rain,230,2013-10-21 02:53:00
11:53 PM,57.0,50.0,77,29.78,10.0,WSW,12.7,-,0.02,Rain,Light Rain,240,2013-10-21 03:53:00